createdAt,value
2022-10-28T00:01:47.423Z,9.97
2022-10-28T00:07:18.312Z,10.06
2022-10-28T00:10:02.820Z,10.01
2022-10-28T00:12:45.822Z,9.94
2022-10-28T00:15:28.990Z,10.00
2022-10-28T00:18:12.549Z,10.00
2022-10-28T00:21:01.250Z,10.03
2022-10-28T00:23:44.375Z,9.84
2022-10-28T00:26:30.559Z,9.91
2022-10-28T00:29:15.499Z,9.73
2022-10-28T00:31:58.543Z,9.60
2022-10-28T00:34:41.665Z,9.60
2022-10-28T00:37:25.361Z,9.61
2022-10-28T00:40:09.344Z,9.55
2022-10-28T00:42:53.889Z,9.51
2022-10-28T00:45:37.257Z,9.30
2022-10-28T00:48:20.337Z,9.27
2022-10-28T00:51:05.374Z,9.23
2022-10-28T00:53:49.424Z,9.08
2022-10-28T00:56:40.838Z,9.09
2022-10-28T00:59:29.128Z,9.08
2022-10-28T01:02:12.566Z,9.09
2022-10-28T01:04:56.394Z,9.11
2022-10-28T01:07:39.420Z,9.03
2022-10-28T01:10:30.123Z,8.97
2022-10-28T01:13:21.694Z,8.98
2022-10-28T01:16:18.774Z,8.99
2022-10-28T01:19:20.066Z,8.99
2022-10-28T01:22:11.099Z,8.87
2022-10-28T01:25:19.495Z,8.88
2022-10-28T01:28:36.796Z,8.94
2022-10-28T01:31:34.416Z,8.90
2022-10-28T01:34:28.671Z,8.86
2022-10-28T01:37:20.233Z,8.89
2022-10-28T01:40:10.007Z,8.86
2022-10-28T01:42:58.559Z,8.81
2022-10-28T01:45:50.718Z,8.90
2022-10-28T01:48:42.043Z,8.84
2022-10-28T01:51:30.608Z,8.90
2022-10-28T01:54:18.359Z,8.83
2022-10-28T01:57:04.445Z,8.82
2022-10-28T01:59:49.747Z,8.72
2022-10-28T02:02:35.382Z,8.77
2022-10-28T02:05:42.279Z,8.71
2022-10-28T02:08:50.302Z,8.75
2022-10-28T02:11:46.148Z,8.76
2022-10-28T02:14:49.665Z,8.69
2022-10-28T02:17:44.130Z,8.70
2022-10-28T02:20:35.954Z,8.73
2022-10-28T02:23:27.454Z,8.72
2022-10-28T02:26:16.796Z,8.71
2022-10-28T02:29:06.508Z,8.70
2022-10-28T02:31:54.425Z,8.62
2022-10-28T02:34:41.940Z,8.64
2022-10-28T02:37:30.708Z,8.53
2022-10-28T02:40:20.426Z,8.59
2022-10-28T02:43:07.830Z,8.51
2022-10-28T02:45:55.478Z,8.50
2022-10-28T02:48:43.493Z,8.40
2022-10-28T02:51:31.384Z,8.42
2022-10-28T02:54:17.429Z,8.49
2022-10-28T02:57:07.386Z,8.52
2022-10-28T02:59:55.125Z,8.54
2022-10-28T03:02:38.257Z,8.53
2022-10-28T03:05:21.612Z,8.45
2022-10-28T03:08:04.934Z,8.49
2022-10-28T03:10:47.972Z,8.40
2022-10-28T03:13:32.380Z,8.45
2022-10-28T03:16:15.651Z,8.40
2022-10-28T03:18:58.830Z,8.40
2022-10-28T03:21:41.958Z,8.26
2022-10-28T03:24:25.156Z,8.26
2022-10-28T03:27:08.158Z,8.27
2022-10-28T03:29:52.624Z,8.16
2022-10-28T03:32:35.623Z,8.25
2022-10-28T03:35:18.619Z,8.31
2022-10-28T03:38:01.814Z,8.24
2022-10-28T03:40:44.823Z,8.02
2022-10-28T03:43:27.903Z,7.88
2022-10-28T03:46:12.334Z,7.95
2022-10-28T03:48:55.362Z,7.79
2022-10-28T03:51:38.362Z,7.85
2022-10-28T03:54:21.385Z,7.80
2022-10-28T03:57:04.644Z,7.66
2022-10-28T03:59:47.704Z,7.71
2022-10-28T04:02:32.193Z,7.62
2022-10-28T04:05:15.312Z,7.44
2022-10-28T04:07:58.285Z,7.58
2022-10-28T04:10:46.240Z,7.45
2022-10-28T04:13:30.208Z,7.45
2022-10-28T04:16:13.247Z,7.45
2022-10-28T04:18:58.093Z,7.34
2022-10-28T04:21:41.186Z,7.37
2022-10-28T04:24:24.217Z,7.29
2022-10-28T04:27:07.193Z,7.29
2022-10-28T04:29:50.227Z,7.28
2022-10-28T04:32:33.263Z,7.25
2022-10-28T04:35:17.933Z,7.23
2022-10-28T04:38:00.896Z,7.13
2022-10-28T04:40:43.927Z,7.18
2022-10-28T04:43:26.979Z,7.14
2022-10-28T04:46:09.987Z,7.16
2022-10-28T04:48:53.086Z,7.18
2022-10-28T04:51:37.745Z,7.26
2022-10-28T04:54:20.907Z,7.38
2022-10-28T04:57:04.209Z,7.45
2022-10-28T04:59:47.352Z,7.36
2022-10-28T05:02:33.286Z,7.46
2022-10-28T05:08:06.634Z,7.47
2022-10-28T05:10:51.252Z,7.64
2022-10-28T05:13:34.364Z,7.77
2022-10-28T05:16:17.491Z,7.87
2022-10-28T05:19:00.850Z,7.91
2022-10-28T05:21:44.192Z,7.98
2022-10-28T05:24:28.665Z,8.02
2022-10-28T05:27:12.852Z,8.15
2022-10-28T05:29:55.893Z,8.27
2022-10-28T05:32:41.736Z,8.37
2022-10-28T05:35:24.793Z,8.38
2022-10-28T05:38:07.923Z,8.36
2022-10-28T05:40:52.453Z,8.39
2022-10-28T05:43:35.610Z,8.50
2022-10-28T05:46:26.455Z,8.56
2022-10-28T05:49:09.599Z,8.70
2022-10-28T05:51:52.725Z,8.42
2022-10-28T05:54:35.890Z,8.56
2022-10-28T05:57:20.336Z,8.55
2022-10-28T06:00:03.724Z,8.77
2022-10-28T06:02:46.784Z,9.06
2022-10-28T06:05:30.070Z,9.14
2022-10-28T06:08:14.157Z,9.89
2022-10-28T06:10:55.661Z,11.89
2022-10-28T06:13:40.139Z,13.35
2022-10-28T06:16:23.265Z,13.82
2022-10-28T06:19:06.370Z,13.27
2022-10-28T06:21:49.391Z,15.05
2022-10-28T06:24:32.476Z,16.94
2022-10-28T06:27:15.576Z,17.70
2022-10-28T06:30:00.423Z,19.00
2022-10-28T06:32:43.448Z,19.07
2022-10-28T06:35:26.908Z,20.83
2022-10-28T06:38:10.125Z,21.86
2022-10-28T06:40:53.425Z,20.76
2022-10-28T06:43:36.545Z,22.34
2022-10-28T06:46:21.848Z,24.99
2022-10-28T06:49:06.564Z,26.01
2022-10-28T06:51:49.974Z,26.26
2022-10-28T06:54:32.997Z,29.31
2022-10-28T06:57:15.978Z,27.51
2022-10-28T06:59:59.117Z,29.74
2022-10-28T07:02:45.212Z,25.59
2022-10-28T07:05:29.594Z,29.40
2022-10-28T07:08:12.975Z,29.79
2022-10-28T07:10:56.838Z,30.91
2022-10-28T07:13:41.136Z,31.09
2022-10-28T07:16:25.938Z,32.80
2022-10-28T07:19:10.687Z,32.91
2022-10-28T07:21:53.686Z,31.81
2022-10-28T07:24:36.719Z,33.15
2022-10-28T07:27:19.853Z,35.74
2022-10-28T07:30:06.543Z,33.64
2022-10-28T07:32:49.910Z,30.68
2022-10-28T07:35:34.482Z,33.41
2022-10-28T07:38:17.566Z,36.77
2022-10-28T07:41:04.388Z,37.48
2022-10-28T07:43:47.633Z,40.30
2022-10-28T07:46:30.718Z,36.89
2022-10-28T07:49:14.431Z,31.78
2022-10-28T07:51:59.318Z,37.09
2022-10-28T07:54:42.480Z,40.98
2022-10-28T07:57:26.412Z,42.20
2022-10-28T08:00:10.421Z,37.93
2022-10-28T08:02:53.519Z,40.54
2022-10-28T08:05:36.703Z,41.61
2022-10-28T08:08:21.465Z,43.96
2022-10-28T08:11:15.873Z,39.34
2022-10-28T08:14:03.858Z,39.82
2022-10-28T08:16:47.539Z,39.63
2022-10-28T08:19:30.753Z,42.20
2022-10-28T08:22:13.908Z,43.77
2022-10-28T08:24:59.567Z,44.79
2022-10-28T08:27:43.179Z,46.71
2022-10-28T08:30:26.377Z,46.34
2022-10-28T08:33:09.830Z,44.45
2022-10-28T08:35:53.524Z,47.11
2022-10-28T08:38:36.602Z,45.70
2022-10-28T08:41:30.487Z,44.42
2022-10-28T08:44:58.146Z,46.53
2022-10-28T08:47:50.896Z,48.71
2022-10-28T08:50:43.997Z,47.52
2022-10-28T08:53:30.335Z,44.35
2022-10-28T08:56:17.575Z,45.36
2022-10-28T08:59:08.298Z,45.93
2022-10-28T09:04:41.125Z,48.00
2022-10-28T09:07:26.059Z,47.40
2022-10-28T09:10:11.840Z,36.98
2022-10-28T09:13:06.758Z,40.64
2022-10-28T09:15:59.798Z,42.58
2022-10-28T09:18:54.865Z,38.27
2022-10-28T09:21:45.842Z,34.75
2022-10-28T09:24:42.304Z,30.44
2022-10-28T09:27:51.803Z,27.83
2022-10-28T09:30:46.515Z,27.00
2022-10-28T09:33:44.143Z,24.99
2022-10-28T09:36:33.995Z,26.13
2022-10-28T09:39:25.320Z,28.70
2022-10-28T09:42:21.735Z,29.04
2022-10-28T09:45:07.967Z,31.98
2022-10-28T09:47:57.468Z,35.66
2022-10-28T09:50:44.303Z,34.15
2022-10-28T09:53:39.078Z,38.33
2022-10-28T09:56:23.480Z,41.83
2022-10-28T09:59:07.294Z,44.47
2022-10-28T10:01:52.681Z,44.21
2022-10-28T10:04:36.221Z,45.04
2022-10-28T10:07:30.276Z,48.02
2022-10-28T10:10:17.378Z,50.00
2022-10-28T10:13:04.750Z,51.15
2022-10-28T10:15:58.306Z,49.06
2022-10-28T10:18:46.874Z,50.66
2022-10-28T10:21:45.384Z,47.28
2022-10-28T10:24:57.729Z,48.91
2022-10-28T10:27:43.419Z,45.12
2022-10-28T10:30:30.320Z,44.62
2022-10-28T10:33:21.205Z,49.20
2022-10-28T10:36:09.442Z,49.80
2022-10-28T10:38:55.327Z,51.36
2022-10-28T10:41:41.669Z,48.62
2022-10-28T10:44:34.825Z,50.19
2022-10-28T10:47:22.830Z,49.97
2022-10-28T10:50:23.169Z,48.70
2022-10-28T10:53:07.221Z,47.02
2022-10-28T10:55:53.697Z,47.48
2022-10-28T10:58:41.835Z,44.95
2022-10-28T11:01:33.119Z,45.56
2022-10-28T11:04:19.979Z,44.58
2022-10-28T11:07:03.257Z,45.62
2022-10-28T11:09:49.927Z,48.43
2022-10-28T11:12:35.760Z,49.69
2022-10-28T11:15:27.728Z,50.93
2022-10-28T11:18:21.089Z,50.56
2022-10-28T11:21:10.108Z,49.81
2022-10-28T11:24:07.080Z,50.33
2022-10-28T11:26:57.420Z,43.20
2022-10-28T11:29:40.860Z,37.33
2022-10-28T11:32:44.040Z,35.73
2022-10-28T11:35:50.321Z,32.41
2022-10-28T11:38:49.071Z,30.35
2022-10-28T11:41:45.187Z,28.80
2022-10-28T11:47:36.681Z,26.35
2022-10-28T11:50:30.119Z,26.15
2022-10-28T11:53:55.015Z,25.04
2022-10-28T11:56:43.599Z,24.19
2022-10-28T12:00:13.582Z,23.87
2022-10-28T12:03:15.702Z,23.21
2022-10-28T12:06:09.418Z,23.27
2022-10-28T12:09:17.713Z,22.95
2022-10-28T12:12:31.713Z,22.35
2022-10-28T12:15:23.358Z,22.22
2022-10-28T12:18:18.955Z,21.85
2022-10-28T12:21:07.217Z,21.78
2022-10-28T12:23:51.026Z,21.48
2022-10-28T12:26:39.939Z,21.66
2022-10-28T12:29:27.280Z,21.51
2022-10-28T12:32:14.160Z,21.36
2022-10-28T12:35:04.273Z,21.18
2022-10-28T12:37:51.202Z,20.99
2022-10-28T12:40:42.833Z,20.94
2022-10-28T12:43:40.943Z,20.83
2022-10-28T12:46:31.832Z,20.68
2022-10-28T12:49:20.359Z,20.79
2022-10-28T12:52:15.920Z,20.61
2022-10-28T12:55:04.437Z,20.51
2022-10-28T12:57:53.198Z,20.62
2022-10-28T13:00:41.866Z,20.67
2022-10-28T13:03:25.162Z,20.70
2022-10-28T13:06:29.590Z,20.61
2022-10-28T13:09:39.535Z,20.38
2022-10-28T13:12:44.061Z,20.46
2022-10-28T13:15:52.653Z,20.30
2022-10-28T13:19:06.179Z,20.16
2022-10-28T13:22:17.118Z,19.93
2022-10-28T13:25:18.758Z,19.73
2022-10-28T13:28:04.219Z,19.86
2022-10-28T13:30:55.291Z,19.89
2022-10-28T13:33:40.342Z,19.81
2022-10-28T13:39:26.903Z,19.85
2022-10-28T13:42:53.480Z,19.89
2022-10-28T13:45:48.495Z,19.90
2022-10-28T13:48:48.000Z,19.73
2022-10-28T13:51:35.487Z,19.58
2022-10-28T13:54:31.574Z,19.60
2022-10-28T13:57:29.676Z,19.60
2022-10-28T14:00:37.401Z,19.55
2022-10-28T14:03:26.847Z,19.43
2022-10-28T14:06:10.225Z,19.46
2022-10-28T14:08:53.468Z,19.40
2022-10-28T14:11:36.588Z,19.35
2022-10-28T14:14:20.762Z,19.27
2022-10-28T14:17:05.555Z,19.15
2022-10-28T14:19:50.728Z,19.11
2022-10-28T14:22:36.490Z,19.07
2022-10-28T14:25:54.631Z,19.00
2022-10-28T14:29:01.558Z,18.95
2022-10-28T14:31:45.647Z,18.90
2022-10-28T14:34:48.052Z,18.85
2022-10-28T14:38:10.060Z,18.79
2022-10-28T14:41:08.589Z,18.60
2022-10-28T14:44:01.994Z,18.62
2022-10-28T14:47:04.012Z,18.52
2022-10-28T14:49:56.441Z,18.34
2022-10-28T14:52:39.701Z,18.25
2022-10-28T14:55:26.214Z,18.15
2022-10-28T14:58:22.805Z,18.10
2022-10-28T15:01:28.162Z,18.00
2022-10-28T15:04:14.116Z,17.94
2022-10-28T15:06:59.528Z,17.80
2022-10-28T15:09:44.667Z,17.70
2022-10-28T15:12:29.782Z,17.59
2022-10-28T15:15:21.293Z,17.52
2022-10-28T15:18:21.211Z,17.34
2022-10-28T15:21:10.878Z,17.26
2022-10-28T15:24:02.611Z,17.16
2022-10-28T15:26:45.742Z,17.11
2022-10-28T15:29:29.252Z,16.87
2022-10-28T15:32:16.322Z,16.78
2022-10-28T15:34:59.481Z,16.65
2022-10-28T15:37:42.534Z,16.57
2022-10-28T15:40:30.060Z,16.40
2022-10-28T15:43:21.293Z,16.24
2022-10-28T15:46:11.263Z,16.10
2022-10-28T15:48:54.859Z,15.97
2022-10-28T15:51:37.902Z,15.89
2022-10-28T15:54:21.601Z,15.70
2022-10-28T15:57:13.884Z,15.62
2022-10-28T16:00:20.466Z,15.44
2022-10-28T16:03:05.627Z,15.31
2022-10-28T16:05:49.321Z,15.29
2022-10-28T16:08:33.625Z,15.07
2022-10-28T16:11:21.132Z,15.06
2022-10-28T16:14:27.919Z,14.98
2022-10-28T16:17:16.457Z,14.89
2022-10-28T16:20:03.204Z,14.76
2022-10-28T16:22:46.673Z,14.68
2022-10-28T16:25:30.319Z,14.54
2022-10-28T16:28:21.535Z,14.51
2022-10-28T16:31:07.051Z,14.39
2022-10-28T16:33:50.067Z,14.38
2022-10-28T16:36:33.117Z,14.19
2022-10-28T16:39:16.411Z,14.06
2022-10-28T16:41:59.380Z,14.00
2022-10-28T16:44:42.640Z,13.98
2022-10-28T16:47:27.680Z,13.87
2022-10-28T16:50:10.978Z,13.77
2022-10-28T16:52:56.206Z,13.75
2022-10-28T16:55:39.263Z,13.65
2022-10-28T16:58:24.744Z,13.55
2022-10-28T17:01:10.799Z,13.54
2022-10-28T17:03:55.288Z,13.49
2022-10-28T17:06:38.340Z,13.41
2022-10-28T17:09:21.409Z,13.43
2022-10-28T17:12:04.441Z,13.40
2022-10-28T17:14:47.669Z,13.17
2022-10-28T17:17:30.749Z,13.13
2022-10-28T17:20:15.174Z,13.04
2022-10-28T17:22:59.298Z,12.97
2022-10-28T17:25:42.297Z,12.82
2022-10-28T17:28:25.364Z,12.74
2022-10-28T17:31:09.851Z,12.68
2022-10-28T17:33:54.849Z,12.65
2022-10-28T17:36:39.528Z,12.61
2022-10-28T17:39:26.127Z,12.61
2022-10-28T17:42:09.772Z,12.66
2022-10-28T17:44:52.972Z,12.52
2022-10-28T17:47:36.130Z,12.48
2022-10-28T17:50:19.494Z,12.48
2022-10-28T17:53:03.859Z,12.50
2022-10-28T17:55:46.994Z,12.53
2022-10-28T17:58:30.269Z,12.37
2022-10-28T18:01:13.643Z,12.43
2022-10-28T18:03:56.767Z,12.44
2022-10-28T18:06:39.907Z,12.43
2022-10-28T18:09:24.964Z,12.39
2022-10-28T18:12:08.519Z,12.20
2022-10-28T18:14:51.564Z,12.21
2022-10-28T18:17:34.592Z,12.10
2022-10-28T18:20:17.839Z,12.10
2022-10-28T18:23:00.892Z,12.05
2022-10-28T18:25:45.405Z,12.06
2022-10-28T18:28:28.920Z,12.01
2022-10-28T18:31:14.201Z,11.93
2022-10-28T18:33:57.875Z,11.90
2022-10-28T18:36:40.873Z,11.85
2022-10-28T18:39:23.864Z,11.89
2022-10-28T18:42:10.765Z,11.85
2022-10-28T18:44:58.663Z,11.83
2022-10-28T18:47:41.782Z,11.79
2022-10-28T18:50:25.672Z,11.74
2022-10-28T18:53:09.129Z,11.76
2022-10-28T18:55:52.332Z,11.73
2022-10-28T18:58:37.164Z,11.75
2022-10-28T19:01:22.280Z,11.70
2022-10-28T19:04:06.334Z,11.68
2022-10-28T19:06:50.326Z,11.60
2022-10-28T19:09:33.352Z,11.64
2022-10-28T19:12:16.367Z,11.58
2022-10-28T19:15:00.769Z,11.53
2022-10-28T19:17:43.742Z,11.57
2022-10-28T19:20:26.789Z,11.52
2022-10-28T19:23:09.840Z,11.54
2022-10-28T19:25:56.719Z,11.43
2022-10-28T19:28:40.756Z,11.34
2022-10-28T19:31:27.478Z,11.34
2022-10-28T19:34:11.254Z,11.35
2022-10-28T19:36:54.239Z,11.25
2022-10-28T19:39:37.242Z,11.23
2022-10-28T19:42:20.273Z,11.22
2022-10-28T19:45:03.946Z,11.24
2022-10-28T19:47:48.343Z,11.21
2022-10-28T19:50:31.306Z,11.08
2022-10-28T19:53:14.320Z,11.09
2022-10-28T19:55:58.653Z,11.08
2022-10-28T19:58:41.661Z,11.06
2022-10-28T20:01:26.727Z,11.04
2022-10-28T20:04:11.477Z,10.99
2022-10-28T20:06:54.507Z,11.02
2022-10-28T20:09:37.581Z,10.88
2022-10-28T20:12:20.565Z,10.88
2022-10-28T20:15:03.554Z,10.87
2022-10-28T20:17:46.553Z,10.86
2022-10-28T20:20:30.971Z,10.79
2022-10-28T20:23:13.976Z,10.77
2022-10-28T20:25:56.992Z,10.77
2022-10-28T20:28:40.324Z,10.70
2022-10-28T20:31:24.843Z,10.65
2022-10-28T20:34:09.021Z,10.62
2022-10-28T20:36:53.439Z,10.57
2022-10-28T20:39:36.425Z,10.51
2022-10-28T20:42:19.487Z,10.41
2022-10-28T20:45:02.557Z,10.30
2022-10-28T20:47:45.807Z,10.30
2022-10-28T20:50:28.801Z,10.29
2022-10-28T20:53:13.243Z,10.32
2022-10-28T20:55:57.738Z,10.21
2022-10-28T20:58:40.713Z,10.21
2022-10-28T21:01:26.273Z,10.16
2022-10-28T21:04:11.992Z,10.16
2022-10-28T21:06:54.980Z,10.14
2022-10-28T21:09:39.436Z,10.04
2022-10-28T21:12:22.445Z,9.96
2022-10-28T21:15:06.525Z,9.89
2022-10-28T21:17:49.577Z,9.90
2022-10-28T21:20:32.657Z,9.75
2022-10-28T21:23:15.717Z,9.73
2022-10-28T21:26:01.548Z,9.65
2022-10-28T21:28:45.349Z,9.66
2022-10-28T21:31:28.368Z,9.58
2022-10-28T21:34:11.593Z,9.58
2022-10-28T21:36:54.595Z,9.53
2022-10-28T21:39:39.844Z,9.59
2022-10-28T21:42:24.287Z,9.49
2022-10-28T21:45:08.428Z,9.51
2022-10-28T21:47:51.417Z,9.52
2022-10-28T21:50:34.419Z,9.42
2022-10-28T21:53:17.400Z,9.29
2022-10-28T21:56:03.663Z,9.35
2022-10-28T21:58:49.141Z,9.29
2022-10-28T22:01:32.998Z,9.28
2022-10-28T22:04:16.104Z,9.30
2022-10-28T22:06:59.089Z,9.35
2022-10-28T22:09:42.150Z,9.36
2022-10-28T22:12:25.183Z,9.26
2022-10-28T22:15:10.301Z,9.28
2022-10-28T22:17:53.536Z,9.23
2022-10-28T22:20:36.770Z,9.18
2022-10-28T22:23:19.806Z,9.17
2022-10-28T22:26:03.672Z,9.10
2022-10-28T22:28:46.748Z,9.10
2022-10-28T22:31:33.147Z,9.10
2022-10-28T22:34:16.180Z,9.08
2022-10-28T22:36:59.164Z,9.12
2022-10-28T22:39:42.144Z,9.09
2022-10-28T22:42:25.753Z,9.00
2022-10-28T22:45:09.400Z,9.11
2022-10-28T22:47:54.091Z,9.09
2022-10-28T22:50:37.202Z,9.01
2022-10-28T22:53:20.445Z,8.94
2022-10-28T22:56:03.483Z,8.92
2022-10-28T22:58:46.506Z,8.91
2022-10-28T23:01:30.436Z,8.85
2022-10-28T23:04:14.879Z,8.79
2022-10-28T23:06:57.918Z,8.71
2022-10-28T23:09:40.909Z,8.73
2022-10-28T23:12:23.932Z,8.68
2022-10-28T23:15:07.812Z,8.58
2022-10-28T23:17:51.062Z,8.63
2022-10-28T23:20:36.522Z,8.63
2022-10-28T23:23:19.475Z,8.63
2022-10-28T23:26:02.514Z,8.69
2022-10-28T23:28:45.688Z,8.56
2022-10-28T23:31:29.200Z,8.56
2022-10-28T23:34:12.176Z,8.48
2022-10-28T23:36:56.545Z,8.49
2022-10-28T23:39:39.515Z,8.43
2022-10-28T23:42:22.528Z,8.48
2022-10-28T23:45:06.563Z,8.45
2022-10-28T23:47:49.538Z,8.38
2022-10-28T23:50:32.564Z,8.28
2022-10-28T23:53:17.168Z,8.25
2022-10-28T23:56:00.244Z,8.24
2022-10-28T23:58:43.216Z,8.24
